createdAt,value
2018-10-19T00:00:23.861Z,20.20
2018-10-19T00:02:51.879Z,20.20
2018-10-19T00:05:19.709Z,20.20
2018-10-19T00:07:47.537Z,20.20
2018-10-19T00:10:15.551Z,20.20
2018-10-19T00:12:44.156Z,20.10
2018-10-19T00:15:11.995Z,20.10
2018-10-19T00:17:40.857Z,20.10
2018-10-19T00:20:10.122Z,20.10
2018-10-19T00:22:37.922Z,20.10
2018-10-19T00:25:06.049Z,20.10
2018-10-19T00:27:33.902Z,20.20
2018-10-19T00:30:02.637Z,20.20
2018-10-19T00:32:30.506Z,20.20
2018-10-19T00:34:58.355Z,20.20
2018-10-19T00:37:27.082Z,20.20
2018-10-19T00:39:55.830Z,20.20
2018-10-19T00:42:24.737Z,20.20
2018-10-19T00:44:52.560Z,20.20
2018-10-19T00:47:20.420Z,20.10
2018-10-19T00:49:48.132Z,20.10
2018-10-19T00:52:16.359Z,20.20
2018-10-19T00:54:46.292Z,20.20
2018-10-19T00:57:14.935Z,20.20
2018-10-19T00:59:44.279Z,20.20
2018-10-19T01:02:12.130Z,20.20
2018-10-19T01:04:40.992Z,20.20
2018-10-19T01:07:09.756Z,20.20
2018-10-19T01:09:39.061Z,20.20
2018-10-19T01:12:07.775Z,20.20
2018-10-19T01:14:36.544Z,20.10
2018-10-19T01:17:04.365Z,20.10
2018-10-19T01:19:33.143Z,20.10
2018-10-19T01:22:01.085Z,20.10
2018-10-19T01:24:28.986Z,20.10
2018-10-19T01:26:57.833Z,20.10
2018-10-19T01:29:26.600Z,20.20
2018-10-19T01:31:54.484Z,20.20
2018-10-19T01:34:23.201Z,20.20
2018-10-19T01:36:51.073Z,20.30
2018-10-19T01:39:19.776Z,20.30
2018-10-19T01:41:47.649Z,20.30
2018-10-19T01:44:16.496Z,20.30
2018-10-19T01:46:49.705Z,20.20
2018-10-19T01:49:19.794Z,20.20
2018-10-19T01:51:47.796Z,20.20
2018-10-19T01:54:16.505Z,20.20
2018-10-19T01:56:45.119Z,20.20
2018-10-19T01:59:14.498Z,20.20
2018-10-19T02:01:43.902Z,20.20
2018-10-19T02:04:11.748Z,20.20
2018-10-19T02:06:39.605Z,20.20
2018-10-19T02:09:08.074Z,20.20
2018-10-19T02:11:36.013Z,20.20
2018-10-19T02:14:04.822Z,20.20
2018-10-19T02:16:32.747Z,20.20
2018-10-19T02:19:01.606Z,20.20
2018-10-19T02:21:29.464Z,20.20
2018-10-19T02:23:57.316Z,20.20
2018-10-19T02:26:25.154Z,20.20
2018-10-19T02:28:54.075Z,20.20
2018-10-19T02:31:23.005Z,20.20
2018-10-19T02:33:51.884Z,20.20
2018-10-19T02:36:20.626Z,20.20
2018-10-19T02:38:48.734Z,20.10
2018-10-19T02:41:17.554Z,20.10
2018-10-19T02:43:46.985Z,20.10
2018-10-19T02:46:15.823Z,20.20
2018-10-19T02:48:44.707Z,20.20
2018-10-19T02:51:14.390Z,20.20
2018-10-19T02:53:44.299Z,20.20
2018-10-19T02:56:13.582Z,20.20
2018-10-19T02:58:42.424Z,20.20
2018-10-19T03:01:10.273Z,20.20
2018-10-19T03:03:39.147Z,20.20
2018-10-19T03:06:07.992Z,20.20
2018-10-19T03:08:36.726Z,20.10
2018-10-19T03:11:04.815Z,20.10
2018-10-19T03:13:33.554Z,20.10
2018-10-19T03:16:01.715Z,20.10
2018-10-19T03:18:30.665Z,20.10
2018-10-19T03:20:58.522Z,20.20
2018-10-19T03:23:26.408Z,20.20
2018-10-19T03:25:55.245Z,20.20
2018-10-19T03:28:23.040Z,20.20
2018-10-19T03:30:50.968Z,20.20
2018-10-19T03:33:18.836Z,20.20
2018-10-19T03:35:46.638Z,20.20
2018-10-19T03:38:15.171Z,20.10
2018-10-19T03:40:44.010Z,20.10
2018-10-19T03:43:11.868Z,20.10
2018-10-19T03:45:39.716Z,20.10
2018-10-19T03:48:07.562Z,20.10
2018-10-19T03:50:35.404Z,20.10
2018-10-19T03:53:03.292Z,20.10
2018-10-19T03:55:31.127Z,20.10
2018-10-19T03:57:58.941Z,20.10
2018-10-19T04:00:27.678Z,20.10
2018-10-19T04:02:55.570Z,20.10
2018-10-19T04:05:24.308Z,20.10
2018-10-19T04:07:52.156Z,20.10
2018-10-19T04:10:19.971Z,20.10
2018-10-19T04:12:47.812Z,20.10
2018-10-19T04:15:15.746Z,20.10
2018-10-19T04:17:44.662Z,20.10
2018-10-19T04:20:12.481Z,20.10
2018-10-19T04:22:40.389Z,20.10
2018-10-19T04:25:08.224Z,20.10
2018-10-19T04:27:36.153Z,20.10
2018-10-19T04:30:04.511Z,20.10
2018-10-19T04:32:32.345Z,20.10
2018-10-19T04:35:01.266Z,20.10
2018-10-19T04:37:29.059Z,20.10
2018-10-19T04:39:56.868Z,20.10
2018-10-19T04:42:25.785Z,20.10
2018-10-19T04:44:53.515Z,20.10
2018-10-19T04:47:21.365Z,20.10
2018-10-19T04:49:49.271Z,20.10
2018-10-19T04:52:17.085Z,20.20
2018-10-19T04:54:45.961Z,20.20
2018-10-19T04:57:14.824Z,20.20
2018-10-19T04:59:42.632Z,20.20
2018-10-19T05:02:10.527Z,20.20
2018-10-19T05:04:38.430Z,20.20
2018-10-19T05:07:06.289Z,20.20
2018-10-19T05:09:34.123Z,20.20
2018-10-19T05:12:01.984Z,20.10
2018-10-19T05:14:29.803Z,20.20
2018-10-19T05:16:57.704Z,20.10
2018-10-19T05:19:25.542Z,20.10
2018-10-19T05:21:53.364Z,20.20
2018-10-19T05:24:21.174Z,20.20
2018-10-19T05:26:49.023Z,20.30
2018-10-19T05:29:16.931Z,20.30
2018-10-19T05:31:45.662Z,20.40
2018-10-19T05:34:14.371Z,20.40
2018-10-19T05:36:42.224Z,20.40
2018-10-19T05:39:10.490Z,20.40
2018-10-19T05:41:39.207Z,20.40
2018-10-19T05:44:07.105Z,20.30
2018-10-19T05:46:36.595Z,20.30
2018-10-19T05:49:04.470Z,20.30
2018-10-19T05:51:33.149Z,20.30
2018-10-19T05:54:01.987Z,20.20
2018-10-19T05:56:30.729Z,20.20
2018-10-19T05:58:59.590Z,20.20
2018-10-19T06:01:28.337Z,20.20
2018-10-19T06:03:57.191Z,20.20
2018-10-19T06:06:25.033Z,20.20
2018-10-19T06:08:52.873Z,20.20
2018-10-19T06:11:20.711Z,20.20
2018-10-19T06:13:49.553Z,20.20
2018-10-19T06:16:18.023Z,20.20
2018-10-19T06:18:45.868Z,20.20
2018-10-19T06:21:15.424Z,20.20
2018-10-19T06:23:43.272Z,20.20
2018-10-19T06:26:12.259Z,20.20
2018-10-19T06:28:41.839Z,20.20
2018-10-19T06:31:10.552Z,20.20
2018-10-19T06:33:39.341Z,20.20
2018-10-19T06:36:08.099Z,20.20
2018-10-19T06:38:35.923Z,20.20
2018-10-19T06:41:04.799Z,20.00
2018-10-19T06:43:32.629Z,19.90
2018-10-19T06:46:01.418Z,19.90
2018-10-19T06:48:29.237Z,20.00
2018-10-19T06:50:58.072Z,20.00
2018-10-19T06:53:26.794Z,20.00
2018-10-19T06:55:55.533Z,20.10
2018-10-19T06:58:24.309Z,20.10
2018-10-19T07:00:53.162Z,20.10
2018-10-19T07:03:21.884Z,20.10
2018-10-19T07:05:51.115Z,20.10
2018-10-19T07:08:18.952Z,20.10
2018-10-19T07:10:46.842Z,20.10
2018-10-19T07:13:15.413Z,20.10
2018-10-19T07:15:43.452Z,20.10
2018-10-19T07:18:11.275Z,20.10
2018-10-19T07:20:39.153Z,20.10
2018-10-19T07:23:07.149Z,20.10
2018-10-19T07:25:35.053Z,20.10
2018-10-19T07:28:03.806Z,20.10
2018-10-19T07:30:32.499Z,20.10
2018-10-19T07:33:01.246Z,20.10
2018-10-19T07:35:29.865Z,20.10
2018-10-19T07:37:57.723Z,20.10
2018-10-19T07:40:26.559Z,20.10
2018-10-19T07:42:55.391Z,20.10
2018-10-19T07:45:23.221Z,20.10
2018-10-19T07:47:51.363Z,20.00
2018-10-19T07:50:20.111Z,20.10
2018-10-19T07:52:47.918Z,20.10
2018-10-19T07:55:15.830Z,20.20
2018-10-19T07:57:45.268Z,20.20
2018-10-19T08:00:13.281Z,20.20
2018-10-19T08:02:41.199Z,20.30
2018-10-19T08:05:09.756Z,20.30
2018-10-19T08:07:38.697Z,20.30
2018-10-19T08:10:07.052Z,20.30
2018-10-19T08:12:36.046Z,20.30
2018-10-19T08:15:04.728Z,20.20
2018-10-19T08:17:32.724Z,20.20
2018-10-19T08:20:00.629Z,20.20
2018-10-19T08:22:28.448Z,20.20
2018-10-19T08:24:56.270Z,20.20
2018-10-19T08:27:24.182Z,20.20
2018-10-19T08:29:51.964Z,20.20
2018-10-19T08:32:19.918Z,20.20
2018-10-19T08:34:47.984Z,20.20
2018-10-19T08:37:15.853Z,20.20
2018-10-19T08:39:44.634Z,20.20
2018-10-19T08:42:12.460Z,20.20
2018-10-19T08:44:40.303Z,20.20
2018-10-19T08:47:09.097Z,20.20
2018-10-19T08:49:37.098Z,20.20
2018-10-19T08:52:05.142Z,20.20
2018-10-19T08:54:35.520Z,20.10
2018-10-19T08:57:04.387Z,20.10
2018-10-19T08:59:32.267Z,20.10
2018-10-19T09:02:00.305Z,20.10
2018-10-19T09:04:28.302Z,20.10
2018-10-19T09:06:56.172Z,20.20
2018-10-19T09:09:24.939Z,20.20
2018-10-19T09:11:52.834Z,20.20
2018-10-19T09:14:26.709Z,20.20
2018-10-19T09:16:54.693Z,20.20
2018-10-19T09:19:22.576Z,20.20
2018-10-19T09:21:50.542Z,20.20
2018-10-19T09:24:18.386Z,20.10
2018-10-19T09:26:46.249Z,20.10
2018-10-19T09:29:14.885Z,20.10
2018-10-19T09:31:42.748Z,20.10
2018-10-19T09:34:10.688Z,20.10
2018-10-19T09:36:38.553Z,20.10
2018-10-19T09:39:08.147Z,20.20
2018-10-19T09:41:36.028Z,20.20
2018-10-19T09:44:04.879Z,20.20
2018-10-19T09:46:32.890Z,20.20
2018-10-19T09:49:00.758Z,20.20
2018-10-19T09:51:28.631Z,20.20
2018-10-19T09:53:56.466Z,20.10
2018-10-19T09:56:24.293Z,20.20
2018-10-19T09:58:52.305Z,20.10
2018-10-19T10:01:27.974Z,20.10
2018-10-19T10:03:56.068Z,20.10
2018-10-19T10:06:23.988Z,20.10
2018-10-19T10:08:51.815Z,20.10
2018-10-19T10:11:20.098Z,20.10
2018-10-19T10:13:47.923Z,20.10
2018-10-19T10:16:15.853Z,20.10
2018-10-19T10:18:44.622Z,20.20
2018-10-19T10:21:12.457Z,20.20
2018-10-19T10:23:40.787Z,20.20
2018-10-19T10:26:08.667Z,20.20
2018-10-19T10:28:36.455Z,20.20
2018-10-19T10:31:04.688Z,20.20
2018-10-19T10:33:32.516Z,20.10
2018-10-19T10:36:00.388Z,20.10
2018-10-19T10:38:28.236Z,20.10
2018-10-19T10:40:56.110Z,20.10
2018-10-19T10:43:23.947Z,20.10
2018-10-19T10:45:51.776Z,20.10
2018-10-19T10:48:20.544Z,20.10
2018-10-19T10:50:48.343Z,20.10
2018-10-19T10:53:16.605Z,20.10
2018-10-19T10:55:44.691Z,20.10
2018-10-19T10:58:12.608Z,20.10
2018-10-19T11:00:40.466Z,20.10
2018-10-19T11:03:08.292Z,20.10
2018-10-19T11:05:36.109Z,20.10
2018-10-19T11:08:03.926Z,20.10
2018-10-19T11:10:31.749Z,20.10
2018-10-19T11:12:59.618Z,20.10
2018-10-19T11:15:27.435Z,20.10
2018-10-19T11:17:55.245Z,20.10
2018-10-19T11:20:23.903Z,20.10
2018-10-19T11:22:51.710Z,20.10
2018-10-19T11:25:19.614Z,20.10
2018-10-19T11:27:47.454Z,20.10
2018-10-19T11:30:17.413Z,20.10
2018-10-19T11:32:46.126Z,20.20
2018-10-19T11:35:14.867Z,20.20
2018-10-19T11:37:42.926Z,20.30
2018-10-19T11:40:35.591Z,20.30
2018-10-19T11:43:03.510Z,20.30
2018-10-19T11:45:33.326Z,20.30
2018-10-19T11:48:02.152Z,20.30
2018-10-19T11:50:30.827Z,20.30
2018-10-19T11:52:58.708Z,20.30
2018-10-19T11:55:26.587Z,20.30
2018-10-19T11:57:54.560Z,20.30
2018-10-19T12:00:22.410Z,20.30
2018-10-19T12:02:50.230Z,20.30
2018-10-19T12:05:19.104Z,20.30
2018-10-19T12:07:47.105Z,20.20
2018-10-19T12:10:15.815Z,20.20
2018-10-19T12:12:44.365Z,20.20
2018-10-19T12:15:14.398Z,20.20
2018-10-19T12:17:43.390Z,20.20
2018-10-19T12:20:17.655Z,20.20
2018-10-19T12:22:45.479Z,20.20
2018-10-19T12:25:14.289Z,20.20
2018-10-19T12:27:42.406Z,20.20
2018-10-19T12:30:11.049Z,20.20
2018-10-19T12:32:39.002Z,20.20
2018-10-19T12:35:08.672Z,20.20
2018-10-19T12:37:36.508Z,20.20
2018-10-19T12:40:05.418Z,20.20
2018-10-19T12:42:33.291Z,20.20
2018-10-19T12:45:01.131Z,20.20
2018-10-19T12:47:32.990Z,20.20
2018-10-19T12:50:00.901Z,20.20
2018-10-19T12:52:29.005Z,20.20
2018-10-19T12:54:56.857Z,20.20
2018-10-19T12:57:24.767Z,20.20
2018-10-19T12:59:53.504Z,20.20
2018-10-19T13:02:21.347Z,20.20
2018-10-19T13:04:49.234Z,20.10
2018-10-19T13:07:17.089Z,20.10
2018-10-19T13:09:45.725Z,20.10
2018-10-19T13:12:14.407Z,20.10
2018-10-19T13:14:42.252Z,20.20
2018-10-19T13:17:10.437Z,20.10
2018-10-19T13:19:38.549Z,20.10
2018-10-19T13:22:06.583Z,20.10
2018-10-19T13:24:35.464Z,20.10
2018-10-19T13:27:03.334Z,20.10
2018-10-19T13:29:31.354Z,20.10
2018-10-19T13:31:59.254Z,20.10
2018-10-19T13:34:27.255Z,20.10
2018-10-19T13:36:55.237Z,20.10
2018-10-19T13:39:24.084Z,20.10
2018-10-19T13:41:52.023Z,20.10
2018-10-19T13:44:20.730Z,20.10
2018-10-19T13:46:48.577Z,20.10
2018-10-19T13:49:16.570Z,20.10
2018-10-19T13:51:45.227Z,20.10
2018-10-19T13:54:13.272Z,20.10
2018-10-19T13:56:41.309Z,20.10
2018-10-19T13:59:09.525Z,20.10
2018-10-19T14:01:39.313Z,20.10
2018-10-19T14:04:07.177Z,20.10
2018-10-19T14:06:34.987Z,20.10
2018-10-19T14:09:04.424Z,20.10
2018-10-19T14:11:32.273Z,20.10
2018-10-19T14:14:01.010Z,20.10
2018-10-19T14:16:44.600Z,20.10
2018-10-19T14:19:12.864Z,20.10
2018-10-19T14:21:41.634Z,20.20
2018-10-19T14:24:09.509Z,20.20
2018-10-19T14:26:38.838Z,20.20
2018-10-19T14:29:06.743Z,20.10
2018-10-19T14:31:35.455Z,20.10
2018-10-19T14:34:04.084Z,20.10
2018-10-19T14:36:31.949Z,20.00
2018-10-19T14:38:59.774Z,19.90
2018-10-19T14:41:28.554Z,19.80
2018-10-19T14:43:57.310Z,19.80
2018-10-19T14:46:26.033Z,19.70
2018-10-19T14:48:53.908Z,19.70
2018-10-19T14:51:21.782Z,19.60
2018-10-19T14:53:49.742Z,19.50
2018-10-19T14:56:17.570Z,19.50
2018-10-19T14:58:46.132Z,19.40
2018-10-19T15:01:15.654Z,19.40
2018-10-19T15:03:45.340Z,19.30
2018-10-19T15:06:14.563Z,19.30
2018-10-19T15:08:43.983Z,19.30
2018-10-19T15:11:11.974Z,19.30
2018-10-19T15:13:39.657Z,19.30
2018-10-19T15:16:07.436Z,19.30
2018-10-19T15:18:35.279Z,19.30
2018-10-19T15:21:03.142Z,19.20
2018-10-19T15:23:30.980Z,19.20
2018-10-19T15:25:58.804Z,19.20
2018-10-19T15:28:26.632Z,19.20
2018-10-19T15:30:54.464Z,19.20
2018-10-19T15:33:22.286Z,19.10
2018-10-19T15:35:50.136Z,19.10
2018-10-19T15:38:17.953Z,19.10
2018-10-19T15:40:45.775Z,19.00
2018-10-19T15:43:14.100Z,19.00
2018-10-19T15:45:42.006Z,19.00
2018-10-19T15:48:09.847Z,19.00
2018-10-19T15:50:37.696Z,19.00
2018-10-19T15:53:05.534Z,19.00
2018-10-19T15:55:33.374Z,18.90
2018-10-19T15:58:01.300Z,18.90
2018-10-19T16:00:29.235Z,19.00
2018-10-19T16:02:57.040Z,18.90
2018-10-19T16:05:24.902Z,18.90
2018-10-19T16:07:53.576Z,18.80
2018-10-19T16:10:21.475Z,18.80
2018-10-19T16:12:49.282Z,18.80
2018-10-19T16:15:17.203Z,18.70
2018-10-19T16:17:45.765Z,18.70
2018-10-19T16:20:14.296Z,18.70
2018-10-19T16:22:42.123Z,18.70
2018-10-19T16:25:09.983Z,18.70
2018-10-19T16:27:39.051Z,18.70
2018-10-19T16:30:07.564Z,18.60
2018-10-19T16:32:35.481Z,18.60
2018-10-19T16:35:03.310Z,18.60
2018-10-19T16:37:31.169Z,18.60
2018-10-19T16:39:58.976Z,18.60
2018-10-19T16:42:26.800Z,18.60
2018-10-19T16:44:54.719Z,18.60
2018-10-19T16:47:22.521Z,18.60
2018-10-19T16:49:50.347Z,18.50
2018-10-19T16:52:18.249Z,18.50
2018-10-19T16:54:46.148Z,18.50
2018-10-19T16:57:14.568Z,18.50
2018-10-19T16:59:43.732Z,18.50
2018-10-19T17:02:11.590Z,18.40
2018-10-19T17:04:39.450Z,18.40
2018-10-19T17:07:07.399Z,18.40
2018-10-19T17:09:36.110Z,18.40
2018-10-19T17:12:04.274Z,18.40
2018-10-19T17:14:32.134Z,18.40
2018-10-19T17:17:00.131Z,18.50
2018-10-19T17:19:28.086Z,18.70
2018-10-19T17:21:55.922Z,19.00
2018-10-19T17:24:23.943Z,19.10
2018-10-19T17:26:51.785Z,19.30
2018-10-19T17:29:19.611Z,19.40
2018-10-19T17:31:48.250Z,19.40
2018-10-19T17:34:16.049Z,19.50
2018-10-19T17:36:44.413Z,19.50
2018-10-19T17:39:12.674Z,19.60
2018-10-19T17:41:40.607Z,19.70
2018-10-19T17:44:08.777Z,19.80
2018-10-19T17:46:36.614Z,19.80
2018-10-19T17:49:04.486Z,19.80
2018-10-19T17:51:32.461Z,19.80
2018-10-19T17:54:00.429Z,19.80
2018-10-19T17:56:29.069Z,19.80
2018-10-19T17:58:56.920Z,19.80
2018-10-19T18:01:24.732Z,19.80
2018-10-19T18:03:53.591Z,19.80
2018-10-19T18:06:21.463Z,19.80
2018-10-19T18:08:50.305Z,19.80
2018-10-19T18:11:19.075Z,19.80
2018-10-19T18:13:47.793Z,19.80
2018-10-19T18:16:15.718Z,19.80
2018-10-19T18:18:44.713Z,19.80
2018-10-19T18:21:12.811Z,19.80
2018-10-19T18:23:40.730Z,19.80
2018-10-19T18:26:08.704Z,19.80
2018-10-19T18:28:36.530Z,19.80
2018-10-19T18:31:04.442Z,19.80
2018-10-19T18:33:32.244Z,19.80
2018-10-19T18:36:00.440Z,19.80
2018-10-19T18:38:29.207Z,19.80
2018-10-19T18:40:57.141Z,19.80
2018-10-19T18:43:24.958Z,19.80
2018-10-19T18:45:52.820Z,19.80
2018-10-19T18:48:20.716Z,19.80
2018-10-19T18:50:48.575Z,19.80
2018-10-19T18:53:16.438Z,19.80
2018-10-19T18:55:44.822Z,19.80
2018-10-19T18:58:12.759Z,19.80
2018-10-19T19:00:40.561Z,19.80
2018-10-19T19:03:08.471Z,19.80
2018-10-19T19:05:36.483Z,19.70
2018-10-19T19:08:04.343Z,19.70
2018-10-19T19:10:32.171Z,19.70
2018-10-19T19:13:05.361Z,19.80
2018-10-19T19:15:33.194Z,19.80
2018-10-19T19:18:01.216Z,19.80
2018-10-19T19:20:31.880Z,19.80
2018-10-19T19:22:59.807Z,19.80
2018-10-19T19:25:33.093Z,19.80
2018-10-19T19:28:00.915Z,19.70
2018-10-19T19:30:28.861Z,19.70
2018-10-19T19:33:02.172Z,19.70
2018-10-19T19:35:30.000Z,19.70
2018-10-19T19:37:57.840Z,19.70
2018-10-19T19:40:25.684Z,19.70
2018-10-19T19:42:56.335Z,19.70
2018-10-19T19:45:24.147Z,19.70
2018-10-19T19:47:57.517Z,19.80
2018-10-19T19:50:25.371Z,19.80
2018-10-19T19:52:53.411Z,19.80
2018-10-19T19:55:21.537Z,19.80
2018-10-19T19:57:49.340Z,19.80
2018-10-19T20:00:21.983Z,19.80
2018-10-19T20:02:50.505Z,19.70
2018-10-19T20:05:18.488Z,19.70
2018-10-19T20:07:47.324Z,19.70
2018-10-19T20:10:15.782Z,19.70
2018-10-19T20:12:44.348Z,19.70
2018-10-19T20:15:12.359Z,19.70
2018-10-19T20:17:40.477Z,19.80
2018-10-19T20:20:09.330Z,19.90
2018-10-19T20:22:37.244Z,19.90
2018-10-19T20:25:05.869Z,19.90
2018-10-19T20:27:33.830Z,19.90
2018-10-19T20:30:03.044Z,19.90
2018-10-19T20:32:31.049Z,19.90
2018-10-19T20:34:58.933Z,19.90
2018-10-19T20:37:27.796Z,19.90
2018-10-19T20:39:56.607Z,19.90
2018-10-19T20:42:24.519Z,19.90
2018-10-19T20:44:52.406Z,19.90
2018-10-19T20:47:20.316Z,19.90
2018-10-19T20:49:48.133Z,19.90
2018-10-19T20:52:16.021Z,19.80
2018-10-19T20:54:46.060Z,19.80
2018-10-19T20:57:14.428Z,19.80
2018-10-19T20:59:42.504Z,19.80
2018-10-19T21:02:11.232Z,19.80
2018-10-19T21:04:39.046Z,19.90
2018-10-19T21:07:06.863Z,19.90
2018-10-19T21:09:34.666Z,19.90
2018-10-19T21:12:03.379Z,19.90
2018-10-19T21:14:32.214Z,19.80
2018-10-19T21:17:00.087Z,19.80
2018-10-19T21:19:27.946Z,19.80
2018-10-19T21:21:55.814Z,19.80
2018-10-19T21:24:23.640Z,19.80
2018-10-19T21:26:51.548Z,19.80
2018-10-19T21:29:19.418Z,19.80
2018-10-19T21:31:48.255Z,19.80
2018-10-19T21:34:16.073Z,19.80
2018-10-19T21:36:44.437Z,19.80
2018-10-19T21:39:13.832Z,19.80
2018-10-19T21:41:42.718Z,19.80
2018-10-19T21:44:10.617Z,19.80
2018-10-19T21:46:38.665Z,19.80
2018-10-19T21:49:07.443Z,19.80
2018-10-19T21:51:36.303Z,19.80
2018-10-19T21:54:04.518Z,19.70
2018-10-19T21:56:32.348Z,19.80
2018-10-19T21:59:01.094Z,19.70
2018-10-19T22:01:28.911Z,19.70
2018-10-19T22:03:56.707Z,19.70
2018-10-19T22:06:25.465Z,19.70
2018-10-19T22:08:53.368Z,19.70
2018-10-19T22:11:21.528Z,19.80
2018-10-19T22:13:49.338Z,19.80
2018-10-19T22:16:18.075Z,19.70
2018-10-19T22:18:46.793Z,19.80
2018-10-19T22:21:15.574Z,19.70
2018-10-19T22:23:44.278Z,19.70
2018-10-19T22:26:13.501Z,19.80
2018-10-19T22:28:42.243Z,19.70
2018-10-19T22:31:11.133Z,19.70
2018-10-19T22:33:39.807Z,19.70
2018-10-19T22:36:08.497Z,19.70
2018-10-19T22:38:37.214Z,19.70
2018-10-19T22:41:06.029Z,19.70
2018-10-19T22:43:33.897Z,19.70
2018-10-19T22:46:02.845Z,19.70
2018-10-19T22:48:30.656Z,19.70
2018-10-19T22:50:59.503Z,19.70
2018-10-19T22:53:27.324Z,19.80
2018-10-19T22:55:56.189Z,19.70
2018-10-19T22:58:24.884Z,19.70
2018-10-19T23:00:52.890Z,19.70
2018-10-19T23:03:20.731Z,19.70
2018-10-19T23:05:49.572Z,19.70
2018-10-19T23:08:17.453Z,19.70
2018-10-19T23:10:47.127Z,19.70
2018-10-19T23:13:16.317Z,19.70
2018-10-19T23:15:45.617Z,19.70
2018-10-19T23:18:13.984Z,19.70
2018-10-19T23:20:41.799Z,19.70
2018-10-19T23:23:10.711Z,19.70
2018-10-19T23:25:38.637Z,19.70
2018-10-19T23:28:06.590Z,19.70
2018-10-19T23:30:34.422Z,19.70
2018-10-19T23:33:02.269Z,19.70
2018-10-19T23:35:31.006Z,19.70
2018-10-19T23:37:58.865Z,19.70
2018-10-19T23:40:26.678Z,19.70
2018-10-19T23:42:55.460Z,19.70
2018-10-19T23:45:23.319Z,19.70
2018-10-19T23:47:51.249Z,19.70
2018-10-19T23:50:19.060Z,19.70
2018-10-19T23:52:46.883Z,19.70
2018-10-19T23:55:15.742Z,19.70
2018-10-19T23:57:45.106Z,19.70
